21kousinmaru — JD2168 — position and weather

sailwx.info

Track history (hours):
 
Tides and Currents Weather Stations Pressure Air Temp Water Temp Dewpoint Dewpoint Depression Visibility Wind Speed Wind Dir Waves Ship Positions

21kousinmaru

Last reported at 2015-Feb-28 12:13 UTC. Time now 2015-Mar-02 11:14 UTC.
Position N 34°04' E 134°59'.

Length 68 m; draft 4.1 m.

MMSI: 431501835.

Date/timePositionNaut miles runAvg speedWind from/ knotsBaromVisibWave heightAir tempDewpointWater temp
2015-Feb-28 12:13N 34°04' E 134°59'1013.5
2015-Feb-28 11:31N 34°14' E 134°59'1212.1
2015-Feb-28 10:33N 34°24' E 135°05'1312.8
2015-Feb-28 09:30N 34°32' E 135°19'6 6.4
2015-Feb-28 08:31N 34°33' E 135°26'0 0.0
2015-Feb-28 06:19N 34°33' E 135°26'0 0.0
2015-Feb-28 04:31N 34°33' E 135°26'2 1.7
2015-Feb-28 03:33N 34°33' E 135°24'7 6.6
2015-Feb-28 02:33N 34°34' E 135°16'8 7.8
2015-Feb-28 01:34N 34°34' E 135°07'24311.1
2015-Feb-27 03:33N 33°47' E 130°18'10 9.6
2015-Feb-27 02:30N 33°37' E 130°22'2 2.2
2015-Feb-27 01:31N 33°37' E 130°25'0 0.0
2015-Feb-27 00:31N 33°37' E 130°25'0 0.0
2015-Feb-26 23:31N 33°37' E 130°25'2 1.9
2015-Feb-26 22:31N 33°37' E 130°22'0 0.0
2015-Feb-26 21:30N 33°37' E 130°22'0 0.0
2015-Feb-26 20:33N 33°37' E 130°22'0 0.0
2015-Feb-26 19:19N 33°37' E 130°22'0 0.0
2015-Feb-26 18:34N 33°37' E 130°22'0 0.0
2015-Feb-26 17:28N 33°37' E 130°22'8 8.7
2015-Feb-26 16:32N 33°44' E 130°17'  
2015-Feb-23 04:14N 33°49' E 130°23'913.0
2015-Feb-23 03:33N 33°42' E 130°16'9 8.8
2015-Feb-23 02:33N 33°37' E 130°25'0 0.0
2015-Feb-23 01:34N 33°37' E 130°25'0 0.0
2015-Feb-23 00:33N 33°37' E 130°25'1 0.9
2015-Feb-22 23:33N 33°37' E 130°23'1 1.2
2015-Feb-22 22:32N 33°37' E 130°22'0 0.0
2015-Feb-22 21:22N 33°37' E 130°22'0 0.0
2015-Feb-22 20:29N 33°37' E 130°22'0 0.0
2015-Feb-22 19:31N 33°37' E 130°22'0 0.0
2015-Feb-22 18:31N 33°37' E 130°22'0 0.0
2015-Feb-22 17:04N 33°37' E 130°22'0 0.0
2015-Feb-22 16:04N 33°37' E 130°22'0 0.0
2015-Feb-22 15:23N 33°37' E 130°22'0 0.0
2015-Feb-22 14:31N 33°37' E 130°22'0 0.0
2015-Feb-22 13:25N 33°37' E 130°22'0 0.0
2015-Feb-22 12:22N 33°37' E 130°22'0 0.0
2015-Feb-22 11:31N 33°37' E 130°22'0 0.0
2015-Feb-22 10:25N 33°37' E 130°22'0 0.0
2015-Feb-22 09:31N 33°37' E 130°22'0 0.0
2015-Feb-22 08:31N 33°37' E 130°22'0 0.0
2015-Feb-22 07:31N 33°37' E 130°22'0 0.0
2015-Feb-22 06:04N 33°37' E 130°22'0 0.0
2015-Feb-22 05:31N 33°37' E 130°22'0 0.0
2015-Feb-22 04:31N 33°37' E 130°22'0 0.1
2015-Feb-22 03:31N 33°37' E 130°22'0 0.0
2015-Feb-22 02:25N 33°37' E 130°22'0 0.0
2015-Feb-22 01:31N 33°37' E 130°22'0 0.0
2015-Feb-22 00:31N 33°37' E 130°22'0 0.0
2015-Feb-21 23:25N 33°37' E 130°22'0 0.0
2015-Feb-21 22:31N 33°37' E 130°22'0 0.0
2015-Feb-21 21:31N 33°37' E 130°22'0 0.0
2015-Feb-21 20:10N 33°37' E 130°22'0 0.0
2015-Feb-21 19:16N 33°37' E 130°22'0 0.0
2015-Feb-21 18:28N 33°37' E 130°22'0 0.0
2015-Feb-21 17:25N 33°37' E 130°22'0 0.0
2015-Feb-21 16:25N 33°37' E 130°22'0 0.0
2015-Feb-21 10:31N 33°37' E 130°22'0 0.0
2015-Feb-21 09:27N 33°37' E 130°22'0 0.0
2015-Feb-21 08:34N 33°37' E 130°22'0 0.0
2015-Feb-21 07:30N 33°37' E 130°22'0 0.0
2015-Feb-21 06:30N 33°37' E 130°22'0 0.0
2015-Feb-21 05:33N 33°37' E 130°22'0 0.0
2015-Feb-21 04:30N 33°37' E 130°22'910.0
2015-Feb-21 03:33N 33°40' E 130°11'  
Track history (hours):
 
Tides and Currents Weather Stations Pressure Air Temp Water Temp Dewpoint Dewpoint Depression Visibility Wind Speed Wind Dir Waves Ship Positions

21kousinmaru

Last reported at 2015-Feb-28 12:13 UTC. Time now 2015-Mar-02 11:14 UTC.
Position N 34°04' E 134°59'.

Length 68 m; draft 4.1 m.

MMSI: 431501835.

Date/timePositionNaut miles runAvg speedWind from/ knotsBaromVisibWave heightAir tempDewpointWater temp
2015-Feb-28 12:13N 34°04' E 134°59'1013.5
2015-Feb-28 11:31N 34°14' E 134°59'1212.1
2015-Feb-28 10:33N 34°24' E 135°05'1312.8
2015-Feb-28 09:30N 34°32' E 135°19'6 6.4
2015-Feb-28 08:31N 34°33' E 135°26'0 0.0
2015-Feb-28 06:19N 34°33' E 135°26'0 0.0
2015-Feb-28 04:31N 34°33' E 135°26'2 1.7
2015-Feb-28 03:33N 34°33' E 135°24'7 6.6
2015-Feb-28 02:33N 34°34' E 135°16'8 7.8
2015-Feb-28 01:34N 34°34' E 135°07'24311.1
2015-Feb-27 03:33N 33°47' E 130°18'10 9.6
2015-Feb-27 02:30N 33°37' E 130°22'2 2.2
2015-Feb-27 01:31N 33°37' E 130°25'0 0.0
2015-Feb-27 00:31N 33°37' E 130°25'0 0.0
2015-Feb-26 23:31N 33°37' E 130°25'2 1.9
2015-Feb-26 22:31N 33°37' E 130°22'0 0.0
2015-Feb-26 21:30N 33°37' E 130°22'0 0.0
2015-Feb-26 20:33N 33°37' E 130°22'0 0.0
2015-Feb-26 19:19N 33°37' E 130°22'0 0.0
2015-Feb-26 18:34N 33°37' E 130°22'0 0.0
2015-Feb-26 17:28N 33°37' E 130°22'8 8.7
2015-Feb-26 16:32N 33°44' E 130°17'  
2015-Feb-23 04:14N 33°49' E 130°23'913.0
2015-Feb-23 03:33N 33°42' E 130°16'9 8.8
2015-Feb-23 02:33N 33°37' E 130°25'0 0.0
2015-Feb-23 01:34N 33°37' E 130°25'0 0.0
2015-Feb-23 00:33N 33°37' E 130°25'1 0.9
2015-Feb-22 23:33N 33°37' E 130°23'1 1.2
2015-Feb-22 22:32N 33°37' E 130°22'0 0.0
2015-Feb-22 21:22N 33°37' E 130°22'0 0.0
2015-Feb-22 20:29N 33°37' E 130°22'0 0.0
2015-Feb-22 19:31N 33°37' E 130°22'0 0.0
2015-Feb-22 18:31N 33°37' E 130°22'0 0.0
2015-Feb-22 17:04N 33°37' E 130°22'0 0.0
2015-Feb-22 16:04N 33°37' E 130°22'0 0.0
2015-Feb-22 15:23N 33°37' E 130°22'0 0.0
2015-Feb-22 14:31N 33°37' E 130°22'0 0.0
2015-Feb-22 13:25N 33°37' E 130°22'0 0.0
2015-Feb-22 12:22N 33°37' E 130°22'0 0.0
2015-Feb-22 11:31N 33°37' E 130°22'0 0.0
2015-Feb-22 10:25N 33°37' E 130°22'0 0.0
2015-Feb-22 09:31N 33°37' E 130°22'0 0.0
2015-Feb-22 08:31N 33°37' E 130°22'0 0.0
2015-Feb-22 07:31N 33°37' E 130°22'0 0.0
2015-Feb-22 06:04N 33°37' E 130°22'0 0.0
2015-Feb-22 05:31N 33°37' E 130°22'0 0.0
2015-Feb-22 04:31N 33°37' E 130°22'0 0.1
2015-Feb-22 03:31N 33°37' E 130°22'0 0.0
2015-Feb-22 02:25N 33°37' E 130°22'0 0.0
2015-Feb-22 01:31N 33°37' E 130°22'0 0.0
2015-Feb-22 00:31N 33°37' E 130°22'0 0.0
2015-Feb-21 23:25N 33°37' E 130°22'0 0.0
2015-Feb-21 22:31N 33°37' E 130°22'0 0.0
2015-Feb-21 21:31N 33°37' E 130°22'0 0.0
2015-Feb-21 20:10N 33°37' E 130°22'0 0.0
2015-Feb-21 19:16N 33°37' E 130°22'0 0.0
2015-Feb-21 18:28N 33°37' E 130°22'0 0.0
2015-Feb-21 17:25N 33°37' E 130°22'0 0.0
2015-Feb-21 16:25N 33°37' E 130°22'0 0.0
2015-Feb-21 10:31N 33°37' E 130°22'0 0.0
2015-Feb-21 09:27N 33°37' E 130°22'0 0.0
2015-Feb-21 08:34N 33°37' E 130°22'0 0.0
2015-Feb-21 07:30N 33°37' E 130°22'0 0.0
2015-Feb-21 06:30N 33°37' E 130°22'0 0.0
2015-Feb-21 05:33N 33°37' E 130°22'0 0.0
2015-Feb-21 04:30N 33°37' E 130°22'910.0
2015-Feb-21 03:33N 33°40' E 130°11'  

Dump ship's entire track history